Terminal Aerodrome Forecast
Issued by NWS Nashville, TN

Home | Current Version | Previous Version | Text Only | Print | Product List | Glossary On
Versions: 1 2 3 4 5 6 7 8 9 10 11 12 13
000
FTUS44 KOHX 250500
TAFBNA
TAF
KBNA 250521Z 2506/2606 VRB03KT P6SM SKC
      TEMPO 2507/2511 4SM BR
     FM251400 20005KT P6SM SCT040
     FM252200 32004KT P6SM SKC=

USA.gov is the U.S. government's official web portal to all federal, state and local government web resources and services.